createdAt,value
2017-07-10T00:00:52.742Z,2.63
2017-07-10T00:03:22.636Z,2.30
2017-07-10T00:05:52.931Z,2.40
2017-07-10T00:08:22.835Z,2.20
2017-07-10T00:10:53.070Z,2.37
2017-07-10T00:13:22.993Z,2.80
2017-07-10T00:15:53.231Z,2.50
2017-07-10T00:18:23.190Z,2.53
2017-07-10T00:20:53.399Z,2.33
2017-07-10T00:23:23.276Z,2.17
2017-07-10T00:25:53.730Z,2.87
2017-07-10T00:28:23.649Z,1.80
2017-07-10T00:30:53.899Z,2.37
2017-07-10T00:33:23.768Z,2.33
2017-07-10T00:35:54.170Z,2.07
2017-07-10T00:38:24.032Z,2.40
2017-07-10T00:40:54.248Z,2.50
2017-07-10T00:43:24.122Z,1.73
2017-07-10T00:45:54.358Z,2.00
2017-07-10T00:48:24.236Z,1.93
2017-07-10T00:50:54.435Z,2.53
2017-07-10T00:53:24.283Z,2.20
2017-07-10T00:55:54.259Z,2.33
2017-07-10T00:58:24.554Z,2.10
2017-07-10T01:00:54.481Z,2.37
2017-07-10T01:03:24.373Z,2.20
2017-07-10T01:05:54.643Z,2.27
2017-07-10T01:08:24.494Z,2.70
2017-07-10T01:10:54.371Z,2.17
2017-07-10T01:13:24.659Z,2.20
2017-07-10T01:15:54.504Z,2.10
2017-07-10T01:18:24.414Z,2.47
2017-07-10T01:20:54.614Z,2.77
2017-07-10T01:23:24.473Z,2.40
2017-07-10T01:25:54.493Z,2.17
2017-07-10T01:28:24.747Z,2.50
2017-07-10T01:30:54.730Z,2.20
2017-07-10T01:33:24.922Z,2.37
2017-07-10T01:35:54.786Z,1.80
2017-07-10T01:38:25.008Z,2.20
2017-07-10T01:40:54.874Z,2.17
2017-07-10T01:43:25.116Z,2.23
2017-07-10T01:45:54.955Z,2.40
2017-07-10T01:48:25.171Z,2.67
2017-07-10T01:50:54.997Z,2.33
2017-07-10T01:53:25.202Z,3.00
2017-07-10T01:55:55.112Z,2.60
2017-07-10T01:58:25.310Z,2.93
2017-07-10T02:00:55.141Z,2.50
2017-07-10T02:03:25.380Z,2.77
2017-07-10T02:05:55.240Z,2.90
2017-07-10T02:08:25.568Z,2.30
2017-07-10T02:10:55.415Z,2.63
2017-07-10T02:13:25.271Z,2.07
2017-07-10T02:15:55.583Z,2.50
2017-07-10T02:18:25.437Z,3.23
2017-07-10T02:20:55.314Z,2.70
2017-07-10T02:23:25.526Z,2.40
2017-07-10T02:25:55.380Z,2.40
2017-07-10T02:28:25.221Z,2.10
2017-07-10T02:30:55.464Z,2.17
2017-07-10T02:33:25.311Z,2.30
2017-07-10T02:35:55.192Z,2.20
2017-07-10T02:38:25.502Z,2.70
2017-07-10T02:40:55.337Z,2.70
2017-07-10T02:43:25.216Z,2.57
2017-07-10T02:45:55.457Z,2.53
2017-07-10T02:48:25.314Z,2.67
2017-07-10T02:50:55.187Z,2.20
2017-07-10T02:53:25.383Z,2.33
2017-07-10T02:55:55.225Z,2.23
2017-07-10T02:58:25.425Z,2.70
2017-07-10T03:00:55.289Z,2.60
2017-07-10T03:03:25.201Z,2.53
2017-07-10T03:05:55.482Z,2.77
2017-07-10T03:08:25.335Z,2.37
2017-07-10T03:10:55.209Z,2.40
2017-07-10T03:13:25.417Z,2.40
2017-07-10T03:15:55.266Z,2.70
2017-07-10T03:18:25.131Z,2.60
2017-07-10T03:20:55.378Z,2.47
2017-07-10T03:23:25.249Z,2.73
2017-07-10T03:25:55.511Z,2.53
2017-07-10T03:28:25.350Z,2.90
2017-07-10T03:30:55.195Z,3.07
2017-07-10T03:33:25.414Z,2.93
2017-07-10T03:35:55.298Z,3.00
2017-07-10T03:38:25.583Z,2.20
2017-07-10T03:40:55.460Z,3.07
2017-07-10T03:43:25.326Z,2.97
2017-07-10T03:45:55.538Z,2.40
2017-07-10T03:48:25.387Z,2.50
2017-07-10T03:50:55.316Z,2.93
2017-07-10T03:53:25.535Z,2.70
2017-07-10T03:55:55.412Z,2.90
2017-07-10T03:58:25.273Z,3.00
2017-07-10T04:00:55.450Z,2.53
2017-07-10T04:03:25.302Z,2.70
2017-07-10T04:05:55.161Z,3.07
2017-07-10T04:08:25.341Z,3.03
2017-07-10T04:10:55.183Z,3.03
2017-07-10T04:13:25.381Z,2.60
2017-07-10T04:15:55.243Z,3.07
2017-07-10T04:18:25.533Z,3.70
2017-07-10T04:20:55.421Z,2.90
2017-07-10T04:23:25.322Z,2.60
2017-07-10T04:25:55.494Z,2.90
2017-07-10T04:28:25.338Z,2.87
2017-07-10T04:30:55.223Z,2.77
2017-07-10T04:33:25.435Z,3.30
2017-07-10T04:35:55.279Z,3.40
2017-07-10T04:38:25.173Z,3.07
2017-07-10T04:40:55.369Z,2.57
2017-07-10T04:43:25.234Z,3.30
2017-07-10T04:45:55.515Z,3.17
2017-07-10T04:48:25.380Z,2.87
2017-07-10T04:50:55.254Z,3.60
2017-07-10T04:53:25.533Z,2.77
2017-07-10T04:55:55.372Z,2.77
2017-07-10T04:58:25.239Z,3.00
2017-07-10T05:00:55.477Z,2.73
2017-07-10T05:03:25.345Z,3.40
2017-07-10T05:05:55.234Z,3.00
2017-07-10T05:08:25.528Z,3.00
2017-07-10T05:10:55.382Z,2.97
2017-07-10T05:13:25.254Z,3.23
2017-07-10T05:15:55.471Z,3.20
2017-07-10T05:18:25.326Z,3.67
2017-07-10T05:20:55.188Z,3.03
2017-07-10T05:23:25.351Z,3.20
2017-07-10T05:25:55.222Z,3.13
2017-07-10T05:28:25.466Z,3.40
2017-07-10T05:30:55.333Z,4.17
2017-07-10T05:33:25.677Z,3.13
2017-07-10T05:35:55.536Z,4.10
2017-07-10T05:38:25.404Z,3.33
2017-07-10T05:40:55.597Z,3.30
2017-07-10T05:43:25.458Z,3.40
2017-07-10T05:45:55.314Z,3.20
2017-07-10T05:48:25.531Z,3.17
2017-07-10T05:50:55.364Z,3.37
2017-07-10T05:53:25.235Z,3.40
2017-07-10T05:55:55.453Z,3.50
2017-07-10T05:58:25.319Z,2.83
2017-07-10T06:00:55.194Z,5.73
2017-07-10T06:03:25.493Z,2.87
2017-07-10T06:05:55.359Z,3.13
2017-07-10T06:08:25.623Z,3.40
2017-07-10T06:10:55.469Z,3.23
2017-07-10T06:13:25.332Z,3.13
2017-07-10T06:15:55.591Z,3.70
2017-07-10T06:18:25.452Z,2.77
2017-07-10T06:20:55.355Z,3.40
2017-07-10T06:23:25.633Z,3.50
2017-07-10T06:25:55.506Z,3.47
2017-07-10T06:28:25.390Z,3.83
2017-07-10T06:30:55.746Z,4.13
2017-07-10T06:33:25.657Z,3.40
2017-07-10T06:35:55.838Z,4.47
2017-07-10T06:38:25.714Z,3.27
2017-07-10T06:40:55.950Z,5.03
2017-07-10T06:43:25.791Z,3.87
2017-07-10T06:45:56.058Z,3.20
2017-07-10T06:48:25.919Z,3.03
2017-07-10T06:50:56.192Z,3.80
2017-07-10T06:53:26.047Z,3.40
2017-07-10T06:55:56.343Z,3.30
2017-07-10T06:58:26.344Z,3.13
2017-07-10T07:00:56.561Z,3.93
2017-07-10T07:03:26.406Z,4.43
2017-07-10T07:05:56.290Z,3.50
2017-07-10T07:08:26.545Z,3.83
2017-07-10T07:10:56.402Z,3.63
2017-07-10T07:13:26.273Z,4.07
2017-07-10T07:15:56.465Z,3.70
2017-07-10T07:18:26.314Z,4.57
2017-07-10T07:20:56.198Z,4.00
2017-07-10T07:23:26.525Z,4.07
2017-07-10T07:25:56.372Z,4.37
2017-07-10T07:28:26.237Z,4.03
2017-07-10T07:30:56.459Z,3.97
2017-07-10T07:33:26.831Z,4.30
2017-07-10T07:35:57.122Z,4.10
2017-07-10T07:38:27.745Z,4.60
2017-07-10T07:40:57.953Z,4.53
2017-07-10T07:43:27.806Z,3.30
2017-07-10T07:45:58.038Z,3.87
2017-07-10T07:48:27.888Z,4.10
2017-07-10T07:50:58.094Z,4.30
2017-07-10T07:53:27.933Z,4.33
2017-07-10T07:55:58.261Z,3.90
2017-07-10T07:58:28.128Z,3.90
2017-07-10T08:00:58.359Z,3.80
2017-07-10T08:03:28.205Z,4.20
2017-07-10T08:05:58.425Z,4.00
2017-07-10T08:08:28.317Z,3.43
2017-07-10T08:10:58.220Z,3.80
2017-07-10T08:13:29.312Z,3.67
2017-07-10T08:15:59.152Z,3.27
2017-07-10T08:18:29.360Z,3.60
2017-07-10T08:20:59.205Z,3.83
2017-07-10T08:23:29.887Z,3.33
2017-07-10T08:26:00.717Z,3.57
2017-07-10T08:28:30.955Z,3.30
2017-07-10T08:31:00.833Z,3.87
2017-07-10T08:33:31.016Z,3.63
2017-07-10T08:36:01.775Z,4.23
2017-07-10T08:38:31.966Z,3.70
2017-07-10T08:41:01.847Z,3.63
2017-07-10T08:43:32.054Z,4.23
2017-07-10T08:46:01.902Z,3.63
2017-07-10T08:48:32.138Z,3.83
2017-07-10T08:51:01.989Z,4.00
2017-07-10T08:53:32.330Z,4.07
2017-07-10T08:56:02.168Z,4.70
2017-07-10T08:58:32.366Z,4.67
2017-07-10T09:01:02.210Z,4.77
2017-07-10T09:03:32.455Z,4.17
2017-07-10T09:06:02.390Z,3.83
2017-07-10T09:08:32.271Z,4.27
2017-07-10T09:11:02.530Z,4.40
2017-07-10T09:13:32.399Z,4.10
2017-07-10T09:16:02.285Z,5.13
2017-07-10T09:18:32.624Z,5.17
2017-07-10T09:21:02.673Z,5.70
2017-07-10T09:23:32.915Z,5.77
2017-07-10T09:26:02.779Z,5.23
2017-07-10T09:28:32.987Z,4.67
2017-07-10T09:31:02.845Z,6.50
2017-07-10T09:33:33.086Z,5.80
2017-07-10T09:36:03.793Z,5.27
2017-07-10T09:38:34.062Z,7.97
2017-07-10T09:41:03.916Z,7.03
2017-07-10T09:43:34.107Z,7.17
2017-07-10T09:46:03.968Z,7.30
2017-07-10T09:48:34.197Z,7.67
2017-07-10T09:51:04.047Z,6.90
2017-07-10T09:53:34.347Z,7.50
2017-07-10T09:56:04.222Z,7.83
2017-07-10T09:58:34.418Z,7.30
2017-07-10T10:01:04.258Z,7.47
2017-07-10T10:03:34.131Z,7.63
2017-07-10T10:06:04.568Z,8.00
2017-07-10T10:08:34.430Z,10.47
2017-07-10T10:11:04.683Z,7.60
2017-07-10T10:13:34.530Z,8.30
2017-07-10T10:16:04.818Z,7.83
2017-07-10T10:18:34.664Z,8.47
2017-07-10T10:21:04.866Z,8.17
2017-07-10T10:23:34.731Z,8.50
2017-07-10T10:26:04.973Z,8.13
2017-07-10T10:28:34.814Z,7.87
2017-07-10T10:31:05.088Z,7.40
2017-07-10T10:33:34.935Z,8.10
2017-07-10T10:36:05.141Z,9.73
2017-07-10T10:38:35.086Z,9.17
2017-07-10T10:41:05.378Z,9.13
2017-07-10T10:43:35.217Z,10.23
2017-07-10T10:46:05.513Z,9.57
2017-07-10T10:48:35.367Z,10.17
2017-07-10T10:51:05.296Z,9.20
2017-07-10T10:53:35.572Z,9.47
2017-07-10T10:56:05.437Z,9.37
2017-07-10T10:58:35.315Z,9.80
2017-07-10T11:01:05.617Z,8.60
2017-07-10T11:03:35.576Z,9.20
2017-07-10T11:06:05.845Z,8.17
2017-07-10T11:08:35.711Z,10.37
2017-07-10T11:11:06.038Z,8.70
2017-07-10T11:13:35.892Z,8.50
2017-07-10T11:16:06.206Z,8.60
2017-07-10T11:18:36.077Z,8.87
2017-07-10T11:21:06.271Z,7.80
2017-07-10T11:23:36.119Z,9.57
2017-07-10T11:26:06.325Z,7.90
2017-07-10T11:28:36.221Z,9.50
2017-07-10T11:31:06.511Z,8.73
2017-07-10T11:33:36.391Z,9.30
2017-07-10T11:36:06.275Z,8.77
2017-07-10T11:38:36.658Z,8.47
2017-07-10T11:41:06.524Z,8.07
2017-07-10T11:43:36.385Z,9.37
2017-07-10T11:46:06.718Z,9.07
2017-07-10T11:48:36.587Z,10.43
2017-07-10T11:51:06.846Z,10.70
2017-07-10T11:53:36.711Z,10.40
2017-07-10T11:56:06.973Z,9.87
2017-07-10T11:58:36.808Z,9.87
2017-07-10T12:01:07.110Z,9.20
2017-07-10T12:03:36.964Z,8.83
2017-07-10T12:06:07.247Z,9.67
2017-07-10T12:08:37.112Z,7.97
2017-07-10T12:11:07.321Z,10.03
2017-07-10T12:13:37.199Z,8.60
2017-07-10T12:16:07.378Z,8.80
2017-07-10T12:18:37.240Z,9.10
2017-07-10T12:21:07.624Z,10.27
2017-07-10T12:23:37.590Z,9.93
2017-07-10T12:26:07.887Z,11.73
2017-07-10T12:28:37.730Z,11.03
2017-07-10T12:31:08.028Z,10.40
2017-07-10T12:33:37.953Z,12.40
2017-07-10T12:36:08.269Z,11.87
2017-07-10T12:38:38.126Z,13.73
2017-07-10T12:41:08.391Z,11.77
2017-07-10T12:43:38.277Z,12.27
2017-07-10T12:46:08.534Z,12.40
2017-07-10T12:48:38.416Z,14.73
2017-07-10T12:51:08.802Z,12.77
2017-07-10T12:53:38.653Z,14.30
2017-07-10T12:56:08.902Z,12.10
2017-07-10T12:58:38.785Z,11.33
2017-07-10T13:01:09.066Z,10.53
2017-07-10T13:03:38.941Z,9.07
2017-07-10T13:06:09.161Z,9.97
2017-07-10T13:08:39.023Z,10.40
2017-07-10T13:11:09.421Z,11.20
2017-07-10T13:13:39.303Z,11.07
2017-07-10T13:16:09.557Z,9.53
2017-07-10T13:18:39.466Z,11.03
2017-07-10T13:21:09.378Z,10.50
2017-07-10T13:23:39.579Z,9.57
2017-07-10T13:26:09.421Z,9.90
2017-07-10T13:28:39.309Z,10.20
2017-07-10T13:31:09.740Z,9.10
2017-07-10T13:33:39.607Z,10.03
2017-07-10T13:36:09.878Z,9.77
2017-07-10T13:38:39.736Z,9.40
2017-07-10T13:41:09.955Z,10.00
2017-07-10T13:43:40.036Z,12.00
2017-07-10T13:46:10.259Z,10.47
2017-07-10T13:48:40.117Z,10.23
2017-07-10T13:51:10.375Z,10.10
2017-07-10T13:53:40.225Z,9.47
2017-07-10T13:56:10.414Z,8.87
2017-07-10T13:58:40.257Z,9.17
2017-07-10T14:01:10.134Z,11.60
2017-07-10T14:03:40.345Z,10.83
2017-07-10T14:06:10.234Z,11.60
2017-07-10T14:08:40.594Z,11.43
2017-07-10T14:11:10.457Z,11.77
2017-07-10T14:13:40.338Z,12.30
2017-07-10T14:16:10.648Z,11.67
2017-07-10T14:18:40.505Z,10.37
2017-07-10T14:21:10.390Z,10.60
2017-07-10T14:23:40.812Z,11.30
2017-07-10T14:26:10.691Z,9.20
2017-07-10T14:28:40.900Z,10.40
2017-07-10T14:31:10.761Z,9.00
2017-07-10T14:33:41.054Z,9.83
2017-07-10T14:36:10.922Z,9.77
2017-07-10T14:38:41.217Z,9.30
2017-07-10T14:41:11.058Z,9.00
2017-07-10T14:43:42.164Z,8.87
2017-07-10T14:46:12.039Z,9.03
2017-07-10T14:48:42.295Z,8.93
2017-07-10T14:51:12.178Z,10.30
2017-07-10T14:53:42.442Z,9.37
2017-07-10T14:56:12.363Z,8.60
2017-07-10T14:58:42.655Z,9.73
2017-07-10T15:01:12.645Z,9.07
2017-07-10T15:03:42.997Z,8.70
2017-07-10T15:06:12.884Z,8.00
2017-07-10T15:08:43.153Z,9.33
2017-07-10T15:11:13.038Z,11.43
2017-07-10T15:13:43.383Z,10.03
2017-07-10T15:16:13.225Z,8.77
2017-07-10T15:18:43.506Z,9.93
2017-07-10T15:21:13.402Z,10.60
2017-07-10T15:23:46.373Z,10.07
2017-07-10T15:26:16.302Z,9.30
2017-07-10T15:28:46.642Z,11.63
2017-07-10T15:31:16.553Z,10.17
2017-07-10T15:33:46.403Z,9.67
2017-07-10T15:36:16.697Z,10.20
2017-07-10T15:38:46.610Z,10.40
2017-07-10T15:41:16.932Z,9.20
2017-07-10T15:43:46.845Z,10.53
2017-07-10T15:46:17.079Z,9.60
2017-07-10T15:48:46.924Z,9.03
2017-07-10T15:51:17.312Z,8.47
2017-07-10T15:53:47.165Z,10.33
2017-07-10T15:56:17.445Z,10.20
2017-07-10T15:58:47.362Z,11.47
2017-07-10T16:01:17.683Z,12.10
2017-07-10T16:03:47.573Z,10.03
2017-07-10T16:06:17.818Z,8.73
2017-07-10T16:08:47.740Z,10.67
2017-07-10T16:11:18.046Z,9.87
2017-07-10T16:13:47.963Z,10.43
2017-07-10T16:16:18.201Z,8.80
2017-07-10T16:18:48.093Z,9.80
2017-07-10T16:21:18.321Z,6.87
2017-07-10T16:23:48.212Z,8.33
2017-07-10T16:26:18.484Z,8.80
2017-07-10T16:28:48.469Z,8.70
2017-07-10T16:31:18.341Z,10.40
2017-07-10T16:33:48.667Z,11.63
2017-07-10T16:36:18.589Z,9.03
2017-07-10T16:38:48.835Z,7.87
2017-07-10T16:41:18.685Z,7.97
2017-07-10T16:43:48.975Z,8.00
2017-07-10T16:46:18.937Z,9.27
2017-07-10T16:48:49.129Z,8.17
2017-07-10T16:51:19.415Z,9.70
2017-07-10T16:53:49.690Z,9.27
2017-07-10T16:56:19.542Z,9.30
2017-07-10T16:58:49.409Z,8.50
2017-07-10T17:01:19.797Z,7.00
2017-07-10T17:03:49.646Z,6.93
2017-07-10T17:06:19.848Z,8.37
2017-07-10T17:08:49.737Z,7.17
2017-07-10T17:11:19.962Z,6.80
2017-07-10T17:13:49.959Z,7.70
2017-07-10T17:16:20.213Z,8.40
2017-07-10T17:18:50.061Z,7.60
2017-07-10T17:21:20.447Z,7.00
2017-07-10T17:23:50.337Z,8.17
2017-07-10T17:26:20.895Z,6.43
2017-07-10T17:28:50.756Z,7.70
2017-07-10T17:31:21.140Z,7.17
2017-07-10T17:33:51.028Z,6.80
2017-07-10T17:36:21.367Z,8.03
2017-07-10T17:38:51.232Z,8.87
2017-07-10T17:41:21.515Z,8.90
2017-07-10T17:43:51.423Z,8.17
2017-07-10T17:46:21.315Z,8.83
2017-07-10T17:48:51.523Z,7.80
2017-07-10T17:51:21.558Z,7.47
2017-07-10T17:53:52.942Z,7.53
2017-07-10T17:56:22.877Z,8.20
2017-07-10T17:58:53.173Z,7.73
2017-07-10T18:01:23.868Z,7.53
2017-07-10T18:03:54.152Z,8.00
2017-07-10T18:06:24.181Z,7.20
2017-07-10T18:08:54.535Z,8.00
2017-07-10T18:11:24.405Z,6.57
2017-07-10T18:13:55.000Z,7.70
2017-07-10T18:16:24.896Z,5.63
2017-07-10T18:18:55.096Z,5.47
2017-07-10T18:21:24.935Z,5.67
2017-07-10T18:23:55.269Z,5.90
2017-07-10T18:26:25.129Z,5.90
2017-07-10T18:28:55.389Z,5.33
2017-07-10T18:31:25.298Z,6.33
2017-07-10T18:33:55.630Z,8.00
2017-07-10T18:36:25.489Z,7.33
2017-07-10T18:38:55.408Z,8.20
2017-07-10T18:41:25.775Z,7.10
2017-07-10T18:43:55.670Z,5.80
2017-07-10T18:46:25.903Z,7.10
2017-07-10T18:48:55.761Z,7.37
2017-07-10T18:51:26.082Z,6.67
2017-07-10T18:53:55.956Z,7.80
2017-07-10T18:56:26.148Z,7.20
2017-07-10T18:58:56.017Z,8.13
2017-07-10T19:01:26.284Z,8.80
2017-07-10T19:03:56.551Z,9.27
2017-07-10T19:06:26.891Z,8.57
2017-07-10T19:08:56.772Z,10.20
2017-07-10T19:11:26.987Z,9.20
2017-07-10T19:13:57.001Z,8.63
2017-07-10T19:16:27.412Z,7.90
2017-07-10T19:18:57.340Z,7.67
2017-07-10T19:21:31.505Z,8.00
2017-07-10T19:24:01.377Z,7.60
2017-07-10T19:26:31.291Z,8.80
2017-07-10T19:29:01.600Z,7.60
2017-07-10T19:31:31.514Z,7.53
2017-07-10T19:34:01.427Z,7.10
2017-07-10T19:36:31.685Z,7.70
2017-07-10T19:39:01.544Z,7.60
2017-07-10T19:41:31.777Z,7.57
2017-07-10T19:44:01.647Z,8.37
2017-07-10T19:46:31.900Z,8.20
2017-07-10T19:49:01.770Z,6.20
2017-07-10T19:51:31.972Z,6.33
2017-07-10T19:54:01.871Z,6.33
2017-07-10T19:56:32.122Z,7.10
2017-07-10T19:59:01.973Z,7.80
2017-07-10T20:01:32.231Z,6.73
2017-07-10T20:04:02.077Z,7.10
2017-07-10T20:06:32.290Z,6.70
2017-07-10T20:09:02.134Z,6.70
2017-07-10T20:11:32.398Z,7.10
2017-07-10T20:14:02.261Z,6.17
2017-07-10T20:16:32.482Z,6.30
2017-07-10T20:19:02.342Z,7.30
2017-07-10T20:21:32.258Z,7.50
2017-07-10T20:24:02.489Z,8.13
2017-07-10T20:26:32.475Z,8.70
2017-07-10T20:29:02.371Z,8.13
2017-07-10T20:31:32.633Z,10.07
2017-07-10T20:34:02.499Z,8.80
2017-07-10T20:36:32.901Z,8.17
2017-07-10T20:39:02.797Z,9.57
2017-07-10T20:41:33.123Z,9.30
2017-07-10T20:44:03.028Z,10.13
2017-07-10T20:46:33.570Z,11.10
2017-07-10T20:49:03.429Z,10.00
2017-07-10T20:51:33.312Z,12.30
2017-07-10T20:54:03.533Z,12.27
2017-07-10T20:56:33.445Z,12.27
2017-07-10T20:59:03.341Z,11.20
2017-07-10T21:01:33.703Z,11.90
2017-07-10T21:04:03.561Z,12.40
2017-07-10T21:06:33.788Z,12.90
2017-07-10T21:09:03.638Z,12.27
2017-07-10T21:11:33.860Z,13.07
2017-07-10T21:14:03.729Z,12.00
2017-07-10T21:16:34.140Z,12.70
2017-07-10T21:19:04.007Z,13.00
2017-07-10T21:21:34.287Z,13.27
2017-07-10T21:24:04.137Z,12.37
2017-07-10T21:26:34.349Z,12.30
2017-07-10T21:29:04.206Z,12.50
2017-07-10T21:31:34.414Z,12.03
2017-07-10T21:34:04.611Z,12.63
2017-07-10T21:36:34.882Z,14.80
2017-07-10T21:39:04.748Z,14.80
2017-07-10T21:41:34.969Z,12.83
2017-07-10T21:44:04.822Z,12.63
2017-07-10T21:46:35.060Z,14.73
2017-07-10T21:49:05.007Z,15.00
2017-07-10T21:51:35.293Z,15.80
2017-07-10T21:54:05.151Z,15.27
2017-07-10T21:56:35.417Z,15.33
2017-07-10T21:59:05.268Z,14.73
2017-07-10T22:01:35.467Z,16.10
2017-07-10T22:04:05.342Z,16.40
2017-07-10T22:06:35.218Z,16.97
2017-07-10T22:09:05.464Z,16.03
2017-07-10T22:11:35.325Z,15.30
2017-07-10T22:14:05.198Z,15.70
2017-07-10T22:16:35.390Z,15.83
2017-07-10T22:19:05.269Z,17.00
2017-07-10T22:21:35.499Z,16.40
2017-07-10T22:24:05.372Z,16.70
2017-07-10T22:26:35.350Z,18.60
2017-07-10T22:29:05.652Z,17.83
2017-07-10T22:31:35.497Z,16.90
2017-07-10T22:34:05.374Z,18.20
2017-07-10T22:36:35.688Z,20.30
2017-07-10T22:39:05.542Z,20.23
2017-07-10T22:41:35.447Z,19.50
2017-07-10T22:44:05.648Z,19.40
2017-07-10T22:46:35.620Z,19.47
2017-07-10T22:49:05.846Z,19.30
2017-07-10T22:51:35.716Z,19.07
2017-07-10T22:54:05.991Z,19.57
2017-07-10T22:56:35.830Z,21.20
2017-07-10T22:59:06.152Z,20.97
2017-07-10T23:01:36.042Z,21.30
2017-07-10T23:04:06.400Z,22.20
2017-07-10T23:06:36.283Z,21.30
2017-07-10T23:09:06.604Z,21.30
2017-07-10T23:11:36.465Z,21.80
2017-07-10T23:14:06.350Z,24.10
2017-07-10T23:16:36.586Z,23.57
2017-07-10T23:19:06.483Z,23.67
2017-07-10T23:21:36.385Z,24.20
2017-07-10T23:24:06.810Z,24.53
2017-07-10T23:26:37.615Z,25.17
2017-07-10T23:29:07.865Z,23.03
2017-07-10T23:31:37.730Z,21.87
2017-07-10T23:34:07.984Z,24.97
2017-07-10T23:36:37.835Z,22.37
2017-07-10T23:39:08.151Z,23.60
2017-07-10T23:41:38.010Z,21.60
2017-07-10T23:44:08.260Z,24.90
2017-07-10T23:46:38.130Z,26.40
2017-07-10T23:49:08.388Z,25.30
2017-07-10T23:51:38.291Z,26.00
2017-07-10T23:54:08.651Z,27.57
2017-07-10T23:56:38.513Z,27.50
2017-07-10T23:59:08.851Z,26.50
